sensor_id;sensor_type;location;lat;lon;timestamp;P1;durP1;ratioP1;P2;durP2;ratioP2
30458;SDS011;74163;50.912;6.918;2023-12-20T00:00:28;15.00;;;12.38;;
30458;SDS011;74163;50.912;6.918;2023-12-20T00:01:00;15.05;;;12.55;;
30458;SDS011;74163;50.912;6.918;2023-12-20T00:01:33;16.83;;;12.88;;
30458;SDS011;74163;50.912;6.918;2023-12-20T00:02:05;16.05;;;12.52;;
30458;SDS011;74163;50.912;6.918;2023-12-20T00:02:37;15.93;;;12.35;;
30458;SDS011;74163;50.912;6.918;2023-12-20T00:03:09;15.32;;;12.63;;
30458;SDS011;74163;50.912;6.918;2023-12-20T00:03:41;15.55;;;11.93;;
30458;SDS011;74163;50.912;6.918;2023-12-20T00:04:13;17.08;;;12.20;;
30458;SDS011;74163;50.912;6.918;2023-12-20T00:04:45;16.98;;;13.60;;
30458;SDS011;74163;50.912;6.918;2023-12-20T00:05:17;16.88;;;12.93;;
30458;SDS011;74163;50.912;6.918;2023-12-20T00:05:49;15.82;;;12.27;;
30458;SDS011;74163;50.912;6.918;2023-12-20T00:06:21;17.52;;;13.32;;
30458;SDS011;74163;50.912;6.918;2023-12-20T00:06:53;16.55;;;13.15;;
30458;SDS011;74163;50.912;6.918;2023-12-20T00:07:25;16.58;;;12.25;;
30458;SDS011;74163;50.912;6.918;2023-12-20T00:07:57;16.95;;;12.93;;
30458;SDS011;74163;50.912;6.918;2023-12-20T00:08:29;16.50;;;13.32;;
30458;SDS011;74163;50.912;6.918;2023-12-20T00:09:01;16.90;;;12.85;;
30458;SDS011;74163;50.912;6.918;2023-12-20T00:09:33;17.58;;;13.10;;
30458;SDS011;74163;50.912;6.918;2023-12-20T00:10:05;17.85;;;13.18;;
30458;SDS011;74163;50.912;6.918;2023-12-20T00:10:39;17.60;;;13.27;;
30458;SDS011;74163;50.912;6.918;2023-12-20T00:11:11;19.65;;;13.10;;
30458;SDS011;74163;50.912;6.918;2023-12-20T00:11:43;16.50;;;12.85;;
30458;SDS011;74163;50.912;6.918;2023-12-20T00:12:15;15.45;;;12.25;;
30458;SDS011;74163;50.912;6.918;2023-12-20T00:12:47;18.27;;;13.48;;
30458;SDS011;74163;50.912;6.918;2023-12-20T00:13:19;17.92;;;13.93;;
30458;SDS011;74163;50.912;6.918;2023-12-20T00:13:51;18.00;;;13.48;;
30458;SDS011;74163;50.912;6.918;2023-12-20T00:14:23;17.92;;;12.90;;
30458;SDS011;74163;50.912;6.918;2023-12-20T00:14:54;16.75;;;12.77;;
30458;SDS011;74163;50.912;6.918;2023-12-20T00:15:26;16.90;;;12.65;;
30458;SDS011;74163;50.912;6.918;2023-12-20T00:15:58;18.25;;;12.65;;
30458;SDS011;74163;50.912;6.918;2023-12-20T00:16:30;16.20;;;12.45;;
30458;SDS011;74163;50.912;6.918;2023-12-20T00:17:02;16.65;;;12.10;;
30458;SDS011;74163;50.912;6.918;2023-12-20T00:17:34;17.10;;;12.65;;
30458;SDS011;74163;50.912;6.918;2023-12-20T00:18:06;16.63;;;12.52;;
30458;SDS011;74163;50.912;6.918;2023-12-20T00:18:38;16.10;;;11.80;;
30458;SDS011;74163;50.912;6.918;2023-12-20T00:19:10;16.52;;;12.18;;
30458;SDS011;74163;50.912;6.918;2023-12-20T00:19:42;15.73;;;11.90;;
30458;SDS011;74163;50.912;6.918;2023-12-20T00:20:14;16.20;;;12.20;;
30458;SDS011;74163;50.912;6.918;2023-12-20T00:20:46;15.90;;;11.48;;
30458;SDS011;74163;50.912;6.918;2023-12-20T00:21:18;14.65;;;11.82;;
30458;SDS011;74163;50.912;6.918;2023-12-20T00:21:50;15.00;;;12.50;;
30458;SDS011;74163;50.912;6.918;2023-12-20T00:22:22;15.73;;;11.77;;
30458;SDS011;74163;50.912;6.918;2023-12-20T00:22:55;15.75;;;11.73;;
30458;SDS011;74163;50.912;6.918;2023-12-20T00:23:28;16.55;;;11.68;;
30458;SDS011;74163;50.912;6.918;2023-12-20T00:24:00;15.32;;;11.20;;
30458;SDS011;74163;50.912;6.918;2023-12-20T00:24:31;15.13;;;12.00;;
30458;SDS011;74163;50.912;6.918;2023-12-20T00:25:03;15.98;;;12.48;;
30458;SDS011;74163;50.912;6.918;2023-12-20T00:25:36;15.10;;;11.52;;
30458;SDS011;74163;50.912;6.918;2023-12-20T00:26:09;15.82;;;11.77;;
30458;SDS011;74163;50.912;6.918;2023-12-20T00:26:41;17.55;;;12.40;;
30458;SDS011;74163;50.912;6.918;2023-12-20T00:27:13;17.05;;;12.05;;
30458;SDS011;74163;50.912;6.918;2023-12-20T00:27:45;17.15;;;12.30;;
30458;SDS011;74163;50.912;6.918;2023-12-20T00:28:17;16.08;;;12.07;;
30458;SDS011;74163;50.912;6.918;2023-12-20T00:28:49;16.58;;;12.15;;
30458;SDS011;74163;50.912;6.918;2023-12-20T00:29:21;17.90;;;12.20;;
30458;SDS011;74163;50.912;6.918;2023-12-20T00:29:53;16.52;;;12.48;;
30458;SDS011;74163;50.912;6.918;2023-12-20T00:30:25;16.08;;;11.85;;
30458;SDS011;74163;50.912;6.918;2023-12-20T00:30:56;17.13;;;12.32;;
30458;SDS011;74163;50.912;6.918;2023-12-20T00:31:29;15.60;;;11.48;;
30458;SDS011;74163;50.912;6.918;2023-12-20T00:32:01;16.15;;;11.55;;
30458;SDS011;74163;50.912;6.918;2023-12-20T00:32:32;16.30;;;11.23;;
30458;SDS011;74163;50.912;6.918;2023-12-20T00:33:04;13.30;;;10.70;;
30458;SDS011;74163;50.912;6.918;2023-12-20T00:33:36;13.52;;;11.15;;
30458;SDS011;74163;50.912;6.918;2023-12-20T00:34:08;13.35;;;10.55;;
30458;SDS011;74163;50.912;6.918;2023-12-20T00:34:41;13.80;;;10.43;;
30458;SDS011;74163;50.912;6.918;2023-12-20T00:35:13;12.55;;;10.55;;
30458;SDS011;74163;50.912;6.918;2023-12-20T00:35:45;14.82;;;10.77;;
30458;SDS011;74163;50.912;6.918;2023-12-20T00:36:17;13.02;;;10.63;;
30458;SDS011;74163;50.912;6.918;2023-12-20T00:36:49;13.48;;;10.45;;
30458;SDS011;74163;50.912;6.918;2023-12-20T00:37:21;13.05;;;10.65;;
30458;SDS011;74163;50.912;6.918;2023-12-20T00:37:53;12.07;;;10.10;;
30458;SDS011;74163;50.912;6.918;2023-12-20T00:38:25;14.13;;;11.00;;
30458;SDS011;74163;50.912;6.918;2023-12-20T00:38:56;14.02;;;10.48;;
30458;SDS011;74163;50.912;6.918;2023-12-20T00:39:28;13.98;;;10.65;;
30458;SDS011;74163;50.912;6.918;2023-12-20T00:40:00;13.07;;;10.25;;
30458;SDS011;74163;50.912;6.918;2023-12-20T00:40:32;12.65;;;10.20;;
30458;SDS011;74163;50.912;6.918;2023-12-20T00:41:04;13.23;;;10.80;;
30458;SDS011;74163;50.912;6.918;2023-12-20T00:41:38;12.75;;;10.30;;
30458;SDS011;74163;50.912;6.918;2023-12-20T00:42:10;13.35;;;10.52;;
30458;SDS011;74163;50.912;6.918;2023-12-20T00:42:41;12.82;;;10.57;;
30458;SDS011;74163;50.912;6.918;2023-12-20T00:43:13;14.80;;;10.50;;
30458;SDS011;74163;50.912;6.918;2023-12-20T00:43:45;14.55;;;11.05;;
30458;SDS011;74163;50.912;6.918;2023-12-20T00:44:17;13.77;;;11.10;;
30458;SDS011;74163;50.912;6.918;2023-12-20T00:44:49;13.80;;;10.73;;
30458;SDS011;74163;50.912;6.918;2023-12-20T00:45:21;13.18;;;10.98;;
30458;SDS011;74163;50.912;6.918;2023-12-20T00:45:53;13.38;;;10.35;;
30458;SDS011;74163;50.912;6.918;2023-12-20T00:46:25;13.13;;;10.73;;
30458;SDS011;74163;50.912;6.918;2023-12-20T00:46:57;13.40;;;10.32;;
30458;SDS011;74163;50.912;6.918;2023-12-20T00:47:29;12.60;;;9.90;;
30458;SDS011;74163;50.912;6.918;2023-12-20T00:48:01;14.27;;;10.25;;
30458;SDS011;74163;50.912;6.918;2023-12-20T00:48:33;14.00;;;10.40;;
30458;SDS011;74163;50.912;6.918;2023-12-20T00:49:05;13.77;;;10.32;;
30458;SDS011;74163;50.912;6.918;2023-12-20T00:49:37;13.50;;;10.20;;
30458;SDS011;74163;50.912;6.918;2023-12-20T00:50:09;14.17;;;10.03;;
30458;SDS011;74163;50.912;6.918;2023-12-20T00:50:41;12.52;;;10.30;;
30458;SDS011;74163;50.912;6.918;2023-12-20T00:51:13;13.32;;;10.23;;
30458;SDS011;74163;50.912;6.918;2023-12-20T00:51:44;13.30;;;10.32;;
30458;SDS011;74163;50.912;6.918;2023-12-20T00:52:16;13.77;;;10.15;;
30458;SDS011;74163;50.912;6.918;2023-12-20T00:52:48;12.60;;;9.93;;
30458;SDS011;74163;50.912;6.918;2023-12-20T00:53:21;12.82;;;10.48;;
30458;SDS011;74163;50.912;6.918;2023-12-20T00:53:53;13.27;;;10.55;;
30458;SDS011;74163;50.912;6.918;2023-12-20T00:54:24;12.65;;;10.20;;
30458;SDS011;74163;50.912;6.918;2023-12-20T00:54:56;12.70;;;9.98;;
30458;SDS011;74163;50.912;6.918;2023-12-20T00:55:28;13.55;;;10.60;;
30458;SDS011;74163;50.912;6.918;2023-12-20T00:56:00;12.32;;;10.15;;
30458;SDS011;74163;50.912;6.918;2023-12-20T00:56:32;11.65;;;9.68;;
30458;SDS011;74163;50.912;6.918;2023-12-20T00:57:05;12.60;;;9.60;;
30458;SDS011;74163;50.912;6.918;2023-12-20T00:57:37;12.90;;;9.70;;
30458;SDS011;74163;50.912;6.918;2023-12-20T00:58:09;13.90;;;10.55;;
30458;SDS011;74163;50.912;6.918;2023-12-20T00:58:41;14.52;;;10.55;;
30458;SDS011;74163;50.912;6.918;2023-12-20T00:59:13;12.73;;;10.60;;
30458;SDS011;74163;50.912;6.918;2023-12-20T00:59:44;13.45;;;10.00;;
30458;SDS011;74163;50.912;6.918;2023-12-20T01:00:16;12.75;;;9.80;;
30458;SDS011;74163;50.912;6.918;2023-12-20T01:00:49;12.75;;;9.82;;
30458;SDS011;74163;50.912;6.918;2023-12-20T01:01:21;13.13;;;10.35;;
30458;SDS011;74163;50.912;6.918;2023-12-20T01:01:53;15.00;;;10.38;;
30458;SDS011;74163;50.912;6.918;2023-12-20T01:02:25;15.00;;;10.57;;
30458;SDS011;74163;50.912;6.918;2023-12-20T01:02:57;13.18;;;9.52;;
30458;SDS011;74163;50.912;6.918;2023-12-20T01:03:29;15.10;;;10.48;;
30458;SDS011;74163;50.912;6.918;2023-12-20T01:04:01;14.27;;;9.60;;
30458;SDS011;74163;50.912;6.918;2023-12-20T01:04:35;13.43;;;9.65;;
30458;SDS011;74163;50.912;6.918;2023-12-20T01:05:07;13.40;;;10.25;;
30458;SDS011;74163;50.912;6.918;2023-12-20T01:05:39;14.13;;;10.68;;
30458;SDS011;74163;50.912;6.918;2023-12-20T01:06:12;13.35;;;10.10;;
30458;SDS011;74163;50.912;6.918;2023-12-20T01:06:44;14.00;;;10.40;;
30458;SDS011;74163;50.912;6.918;2023-12-20T01:07:16;14.75;;;10.70;;
30458;SDS011;74163;50.912;6.918;2023-12-20T01:07:48;15.77;;;10.68;;
30458;SDS011;74163;50.912;6.918;2023-12-20T01:08:20;14.15;;;10.50;;
30458;SDS011;74163;50.912;6.918;2023-12-20T01:08:52;15.18;;;10.60;;
30458;SDS011;74163;50.912;6.918;2023-12-20T01:09:23;14.10;;;10.23;;
30458;SDS011;74163;50.912;6.918;2023-12-20T01:09:55;12.27;;;10.30;;
30458;SDS011;74163;50.912;6.918;2023-12-20T01:10:28;14.45;;;10.52;;
30458;SDS011;74163;50.912;6.918;2023-12-20T01:10:59;14.55;;;10.63;;
30458;SDS011;74163;50.912;6.918;2023-12-20T01:11:31;15.15;;;10.23;;
30458;SDS011;74163;50.912;6.918;2023-12-20T01:12:03;14.60;;;10.35;;
30458;SDS011;74163;50.912;6.918;2023-12-20T01:12:37;14.32;;;10.13;;
30458;SDS011;74163;50.912;6.918;2023-12-20T01:13:09;15.40;;;10.98;;
30458;SDS011;74163;50.912;6.918;2023-12-20T01:13:41;14.73;;;11.13;;
30458;SDS011;74163;50.912;6.918;2023-12-20T01:14:13;14.75;;;10.45;;
30458;SDS011;74163;50.912;6.918;2023-12-20T01:14:45;14.52;;;10.23;;
30458;SDS011;74163;50.912;6.918;2023-12-20T01:15:17;15.77;;;10.75;;
30458;SDS011;74163;50.912;6.918;2023-12-20T01:15:49;14.27;;;10.05;;
30458;SDS011;74163;50.912;6.918;2023-12-20T01:16:21;12.93;;;9.40;;
30458;SDS011;74163;50.912;6.918;2023-12-20T01:16:53;14.38;;;9.77;;
30458;SDS011;74163;50.912;6.918;2023-12-20T01:17:25;13.50;;;9.75;;
30458;SDS011;74163;50.912;6.918;2023-12-20T01:17:57;13.43;;;9.43;;
30458;SDS011;74163;50.912;6.918;2023-12-20T01:18:28;13.02;;;9.60;;
30458;SDS011;74163;50.912;6.918;2023-12-20T01:19:00;12.77;;;9.02;;
30458;SDS011;74163;50.912;6.918;2023-12-20T01:19:32;16.00;;;10.35;;
30458;SDS011;74163;50.912;6.918;2023-12-20T01:20:05;14.65;;;9.50;;
30458;SDS011;74163;50.912;6.918;2023-12-20T01:20:38;14.68;;;9.60;;
30458;SDS011;74163;50.912;6.918;2023-12-20T01:21:10;13.90;;;10.20;;
30458;SDS011;74163;50.912;6.918;2023-12-20T01:21:42;13.55;;;9.45;;
30458;SDS011;74163;50.912;6.918;2023-12-20T01:22:14;14.50;;;9.48;;
30458;SDS011;74163;50.912;6.918;2023-12-20T01:22:46;12.77;;;9.25;;
30458;SDS011;74163;50.912;6.918;2023-12-20T01:23:18;13.23;;;9.27;;
30458;SDS011;74163;50.912;6.918;2023-12-20T01:23:50;12.77;;;10.40;;
30458;SDS011;74163;50.912;6.918;2023-12-20T01:24:22;12.48;;;8.68;;
30458;SDS011;74163;50.912;6.918;2023-12-20T01:24:54;11.43;;;9.05;;
30458;SDS011;74163;50.912;6.918;2023-12-20T01:25:26;14.93;;;9.93;;
30458;SDS011;74163;50.912;6.918;2023-12-20T01:25:58;12.80;;;9.32;;
30458;SDS011;74163;50.912;6.918;2023-12-20T01:26:30;15.27;;;9.70;;
30458;SDS011;74163;50.912;6.918;2023-12-20T01:27:02;15.00;;;10.40;;
30458;SDS011;74163;50.912;6.918;2023-12-20T01:27:35;14.00;;;9.73;;
30458;SDS011;74163;50.912;6.918;2023-12-20T01:28:07;13.67;;;9.73;;
30458;SDS011;74163;50.912;6.918;2023-12-20T01:28:39;15.35;;;11.50;;
30458;SDS011;74163;50.912;6.918;2023-12-20T01:29:11;16.60;;;10.65;;
30458;SDS011;74163;50.912;6.918;2023-12-20T01:29:43;14.90;;;10.20;;
30458;SDS011;74163;50.912;6.918;2023-12-20T01:30:15;14.43;;;10.68;;
30458;SDS011;74163;50.912;6.918;2023-12-20T01:30:47;16.23;;;10.55;;
30458;SDS011;74163;50.912;6.918;2023-12-20T01:31:19;14.95;;;10.60;;
30458;SDS011;74163;50.912;6.918;2023-12-20T01:31:51;14.98;;;11.55;;
30458;SDS011;74163;50.912;6.918;2023-12-20T01:32:23;15.27;;;11.18;;
30458;SDS011;74163;50.912;6.918;2023-12-20T01:32:55;19.17;;;12.43;;
30458;SDS011;74163;50.912;6.918;2023-12-20T01:33:27;16.33;;;12.57;;
30458;SDS011;74163;50.912;6.918;2023-12-20T01:33:58;19.73;;;13.88;;
30458;SDS011;74163;50.912;6.918;2023-12-20T01:34:31;23.95;;;16.92;;
30458;SDS011;74163;50.912;6.918;2023-12-20T01:35:03;23.75;;;17.33;;
30458;SDS011;74163;50.912;6.918;2023-12-20T01:35:35;24.60;;;18.33;;
30458;SDS011;74163;50.912;6.918;2023-12-20T01:36:07;26.55;;;20.33;;
30458;SDS011;74163;50.912;6.918;2023-12-20T01:36:39;28.08;;;20.45;;
30458;SDS011;74163;50.912;6.918;2023-12-20T01:37:11;30.85;;;21.17;;
30458;SDS011;74163;50.912;6.918;2023-12-20T01:37:43;28.88;;;20.15;;
30458;SDS011;74163;50.912;6.918;2023-12-20T01:38:16;27.87;;;19.43;;
30458;SDS011;74163;50.912;6.918;2023-12-20T01:38:48;28.33;;;20.05;;
30458;SDS011;74163;50.912;6.918;2023-12-20T01:39:19;29.25;;;19.90;;
30458;SDS011;74163;50.912;6.918;2023-12-20T01:40:00;26.02;;;19.33;;
30458;SDS011;74163;50.912;6.918;2023-12-20T01:40:32;26.90;;;19.50;;
30458;SDS011;74163;50.912;6.918;2023-12-20T01:41:04;25.35;;;18.90;;
30458;SDS011;74163;50.912;6.918;2023-12-20T01:41:35;25.92;;;19.23;;
30458;SDS011;74163;50.912;6.918;2023-12-20T01:42:07;24.90;;;17.65;;
30458;SDS011;74163;50.912;6.918;2023-12-20T01:42:41;24.00;;;18.25;;
30458;SDS011;74163;50.912;6.918;2023-12-20T01:43:13;26.98;;;17.20;;
30458;SDS011;74163;50.912;6.918;2023-12-20T01:43:45;26.27;;;17.73;;
30458;SDS011;74163;50.912;6.918;2023-12-20T01:44:22;24.95;;;17.05;;
30458;SDS011;74163;50.912;6.918;2023-12-20T01:44:54;23.35;;;16.88;;
30458;SDS011;74163;50.912;6.918;2023-12-20T01:45:26;24.73;;;16.50;;
30458;SDS011;74163;50.912;6.918;2023-12-20T01:45:58;26.20;;;17.13;;
30458;SDS011;74163;50.912;6.918;2023-12-20T01:46:30;24.52;;;16.83;;
30458;SDS011;74163;50.912;6.918;2023-12-20T01:47:02;22.98;;;16.30;;
30458;SDS011;74163;50.912;6.918;2023-12-20T01:47:35;21.52;;;16.05;;
30458;SDS011;74163;50.912;6.918;2023-12-20T01:48:08;24.02;;;16.45;;
30458;SDS011;74163;50.912;6.918;2023-12-20T01:48:40;23.57;;;16.50;;
30458;SDS011;74163;50.912;6.918;2023-12-20T01:49:13;23.30;;;16.80;;
30458;SDS011;74163;50.912;6.918;2023-12-20T01:49:46;24.08;;;16.88;;
30458;SDS011;74163;50.912;6.918;2023-12-20T01:50:19;26.88;;;16.15;;
30458;SDS011;74163;50.912;6.918;2023-12-20T01:50:51;23.17;;;15.70;;
30458;SDS011;74163;50.912;6.918;2023-12-20T01:51:24;25.00;;;15.98;;
30458;SDS011;74163;50.912;6.918;2023-12-20T01:51:57;24.10;;;16.05;;
30458;SDS011;74163;50.912;6.918;2023-12-20T01:52:29;24.65;;;16.77;;
30458;SDS011;74163;50.912;6.918;2023-12-20T01:53:01;23.73;;;15.68;;
30458;SDS011;74163;50.912;6.918;2023-12-20T01:53:34;25.58;;;16.05;;
30458;SDS011;74163;50.912;6.918;2023-12-20T01:54:07;22.05;;;15.32;;
30458;SDS011;74163;50.912;6.918;2023-12-20T01:54:39;24.65;;;16.10;;
30458;SDS011;74163;50.912;6.918;2023-12-20T01:55:13;21.60;;;14.95;;
30458;SDS011;74163;50.912;6.918;2023-12-20T01:55:45;24.30;;;14.95;;
30458;SDS011;74163;50.912;6.918;2023-12-20T01:56:17;22.92;;;14.07;;
30458;SDS011;74163;50.912;6.918;2023-12-20T01:56:49;22.30;;;14.70;;
30458;SDS011;74163;50.912;6.918;2023-12-20T01:57:22;22.85;;;13.98;;
30458;SDS011;74163;50.912;6.918;2023-12-20T01:57:55;23.40;;;15.05;;
30458;SDS011;74163;50.912;6.918;2023-12-20T01:58:28;19.92;;;14.15;;
30458;SDS011;74163;50.912;6.918;2023-12-20T01:59:01;22.38;;;14.30;;
30458;SDS011;74163;50.912;6.918;2023-12-20T01:59:33;22.27;;;14.45;;
30458;SDS011;74163;50.912;6.918;2023-12-20T02:00:06;21.90;;;14.07;;
30458;SDS011;74163;50.912;6.918;2023-12-20T02:00:39;20.83;;;14.07;;
30458;SDS011;74163;50.912;6.918;2023-12-20T02:01:11;19.55;;;13.07;;
30458;SDS011;74163;50.912;6.918;2023-12-20T02:01:44;22.67;;;13.98;;
30458;SDS011;74163;50.912;6.918;2023-12-20T02:02:16;20.30;;;13.27;;
30458;SDS011;74163;50.912;6.918;2023-12-20T02:02:49;18.05;;;12.15;;
30458;SDS011;74163;50.912;6.918;2023-12-20T02:03:24;20.05;;;12.85;;
30458;SDS011;74163;50.912;6.918;2023-12-20T02:03:56;20.13;;;12.80;;
30458;SDS011;74163;50.912;6.918;2023-12-20T02:04:29;19.58;;;12.98;;
30458;SDS011;74163;50.912;6.918;2023-12-20T02:05:01;19.63;;;12.68;;
30458;SDS011;74163;50.912;6.918;2023-12-20T02:05:33;19.98;;;13.13;;
30458;SDS011;74163;50.912;6.918;2023-12-20T02:06:07;20.00;;;11.88;;
30458;SDS011;74163;50.912;6.918;2023-12-20T02:06:39;18.23;;;11.60;;
30458;SDS011;74163;50.912;6.918;2023-12-20T02:07:12;18.17;;;12.37;;
30458;SDS011;74163;50.912;6.918;2023-12-20T02:07:44;17.52;;;11.40;;
30458;SDS011;74163;50.912;6.918;2023-12-20T02:08:16;18.15;;;11.40;;
30458;SDS011;74163;50.912;6.918;2023-12-20T02:08:48;16.95;;;11.13;;
30458;SDS011;74163;50.912;6.918;2023-12-20T02:09:21;18.10;;;12.13;;
30458;SDS011;74163;50.912;6.918;2023-12-20T02:09:54;20.33;;;11.77;;
30458;SDS011;74163;50.912;6.918;2023-12-20T02:10:26;18.77;;;12.20;;
30458;SDS011;74163;50.912;6.918;2023-12-20T02:10:59;17.27;;;11.15;;
30458;SDS011;74163;50.912;6.918;2023-12-20T02:11:31;16.00;;;11.00;;
30458;SDS011;74163;50.912;6.918;2023-12-20T02:12:04;18.17;;;10.65;;
30458;SDS011;74163;50.912;6.918;2023-12-20T02:12:36;17.65;;;10.93;;
30458;SDS011;74163;50.912;6.918;2023-12-20T02:13:10;14.57;;;10.43;;
30458;SDS011;74163;50.912;6.918;2023-12-20T02:13:42;17.73;;;10.55;;
30458;SDS011;74163;50.912;6.918;2023-12-20T02:14:13;16.23;;;10.02;;
30458;SDS011;74163;50.912;6.918;2023-12-20T02:14:45;16.80;;;9.77;;
30458;SDS011;74163;50.912;6.918;2023-12-20T02:15:17;16.52;;;9.98;;
30458;SDS011;74163;50.912;6.918;2023-12-20T02:15:49;14.52;;;10.07;;
30458;SDS011;74163;50.912;6.918;2023-12-20T02:16:21;15.13;;;9.88;;
30458;SDS011;74163;50.912;6.918;2023-12-20T02:16:54;14.82;;;9.57;;
30458;SDS011;74163;50.912;6.918;2023-12-20T02:17:26;15.23;;;9.23;;
30458;SDS011;74163;50.912;6.918;2023-12-20T02:17:59;17.67;;;10.05;;
30458;SDS011;74163;50.912;6.918;2023-12-20T02:18:31;14.75;;;9.15;;
30458;SDS011;74163;50.912;6.918;2023-12-20T02:19:03;15.10;;;9.48;;
30458;SDS011;74163;50.912;6.918;2023-12-20T02:19:38;15.02;;;9.52;;
30458;SDS011;74163;50.912;6.918;2023-12-20T02:20:10;18.08;;;9.82;;
30458;SDS011;74163;50.912;6.918;2023-12-20T02:20:42;14.88;;;9.63;;
30458;SDS011;74163;50.912;6.918;2023-12-20T02:21:14;15.43;;;8.70;;
30458;SDS011;74163;50.912;6.918;2023-12-20T02:21:47;18.20;;;10.10;;
30458;SDS011;74163;50.912;6.918;2023-12-20T02:22:19;16.27;;;9.98;;
30458;SDS011;74163;50.912;6.918;2023-12-20T02:22:51;16.63;;;9.65;;
30458;SDS011;74163;50.912;6.918;2023-12-20T02:23:23;13.82;;;9.30;;
30458;SDS011;74163;50.912;6.918;2023-12-20T02:23:55;15.30;;;9.00;;
30458;SDS011;74163;50.912;6.918;2023-12-20T02:24:27;14.48;;;9.52;;
30458;SDS011;74163;50.912;6.918;2023-12-20T02:24:59;15.13;;;8.85;;
30458;SDS011;74163;50.912;6.918;2023-12-20T02:25:31;18.33;;;9.90;;
30458;SDS011;74163;50.912;6.918;2023-12-20T02:26:03;19.98;;;9.43;;
30458;SDS011;74163;50.912;6.918;2023-12-20T02:26:35;16.50;;;8.63;;
30458;SDS011;74163;50.912;6.918;2023-12-20T02:27:07;15.00;;;8.57;;
30458;SDS011;74163;50.912;6.918;2023-12-20T02:27:40;18.23;;;9.43;;
30458;SDS011;74163;50.912;6.918;2023-12-20T02:28:12;13.25;;;8.18;;
30458;SDS011;74163;50.912;6.918;2023-12-20T02:28:44;17.70;;;8.13;;
30458;SDS011;74163;50.912;6.918;2023-12-20T02:29:16;16.23;;;8.13;;
30458;SDS011;74163;50.912;6.918;2023-12-20T02:29:48;15.47;;;8.30;;
30458;SDS011;74163;50.912;6.918;2023-12-20T02:30:21;13.70;;;8.13;;
30458;SDS011;74163;50.912;6.918;2023-12-20T02:30:53;17.05;;;8.65;;
30458;SDS011;74163;50.912;6.918;2023-12-20T02:31:25;17.02;;;9.35;;
30458;SDS011;74163;50.912;6.918;2023-12-20T02:31:57;15.60;;;8.35;;
30458;SDS011;74163;50.912;6.918;2023-12-20T02:32:29;17.27;;;8.65;;
30458;SDS011;74163;50.912;6.918;2023-12-20T02:33:01;14.90;;;7.75;;
30458;SDS011;74163;50.912;6.918;2023-12-20T02:33:39;16.25;;;7.82;;
30458;SDS011;74163;50.912;6.918;2023-12-20T02:34:11;18.23;;;7.93;;
30458;SDS011;74163;50.912;6.918;2023-12-20T02:34:43;16.75;;;8.10;;
30458;SDS011;74163;50.912;6.918;2023-12-20T02:35:15;14.75;;;7.78;;
30458;SDS011;74163;50.912;6.918;2023-12-20T02:35:47;14.43;;;7.35;;
30458;SDS011;74163;50.912;6.918;2023-12-20T02:36:19;15.35;;;7.78;;
30458;SDS011;74163;50.912;6.918;2023-12-20T02:36:52;14.30;;;7.13;;
30458;SDS011;74163;50.912;6.918;2023-12-20T02:37:24;13.88;;;7.68;;
30458;SDS011;74163;50.912;6.918;2023-12-20T02:37:56;14.65;;;7.82;;
30458;SDS011;74163;50.912;6.918;2023-12-20T02:38:28;12.52;;;7.13;;
30458;SDS011;74163;50.912;6.918;2023-12-20T02:39:00;17.65;;;7.50;;
30458;SDS011;74163;50.912;6.918;2023-12-20T02:39:32;10.93;;;6.95;;
30458;SDS011;74163;50.912;6.918;2023-12-20T02:40:04;11.97;;;7.07;;
30458;SDS011;74163;50.912;6.918;2023-12-20T02:40:37;14.10;;;7.60;;
30458;SDS011;74163;50.912;6.918;2023-12-20T02:41:09;15.90;;;6.40;;
30458;SDS011;74163;50.912;6.918;2023-12-20T02:41:41;15.02;;;6.65;;
30458;SDS011;74163;50.912;6.918;2023-12-20T02:42:12;15.63;;;6.65;;
30458;SDS011;74163;50.912;6.918;2023-12-20T02:42:44;17.00;;;7.50;;
30458;SDS011;74163;50.912;6.918;2023-12-20T02:43:16;17.20;;;7.60;;
30458;SDS011;74163;50.912;6.918;2023-12-20T02:43:48;17.88;;;7.40;;
30458;SDS011;74163;50.912;6.918;2023-12-20T02:44:20;14.98;;;7.20;;
30458;SDS011;74163;50.912;6.918;2023-12-20T02:44:52;16.50;;;6.82;;
30458;SDS011;74163;50.912;6.918;2023-12-20T02:45:24;15.57;;;7.05;;
30458;SDS011;74163;50.912;6.918;2023-12-20T02:45:56;13.63;;;6.97;;
30458;SDS011;74163;50.912;6.918;2023-12-20T02:46:28;12.30;;;6.28;;
30458;SDS011;74163;50.912;6.918;2023-12-20T02:47:00;11.05;;;6.25;;
30458;SDS011;74163;50.912;6.918;2023-12-20T02:47:32;13.17;;;6.80;;
30458;SDS011;74163;50.912;6.918;2023-12-20T02:48:04;11.63;;;6.63;;
30458;SDS011;74163;50.912;6.918;2023-12-20T02:48:36;13.05;;;6.45;;
30458;SDS011;74163;50.912;6.918;2023-12-20T02:49:08;12.40;;;6.97;;
30458;SDS011;74163;50.912;6.918;2023-12-20T02:49:40;12.43;;;6.43;;
30458;SDS011;74163;50.912;6.918;2023-12-20T02:50:12;11.30;;;6.22;;
30458;SDS011;74163;50.912;6.918;2023-12-20T02:50:45;15.23;;;6.70;;
30458;SDS011;74163;50.912;6.918;2023-12-20T02:51:18;17.52;;;7.47;;
30458;SDS011;74163;50.912;6.918;2023-12-20T02:51:50;17.35;;;7.43;;
30458;SDS011;74163;50.912;6.918;2023-12-20T02:52:23;14.82;;;7.70;;
30458;SDS011;74163;50.912;6.918;2023-12-20T02:52:56;16.05;;;6.82;;
30458;SDS011;74163;50.912;6.918;2023-12-20T02:53:28;14.50;;;7.07;;
30458;SDS011;74163;50.912;6.918;2023-12-20T02:54:00;16.38;;;7.95;;
30458;SDS011;74163;50.912;6.918;2023-12-20T02:54:32;14.00;;;6.85;;
30458;SDS011;74163;50.912;6.918;2023-12-20T02:55:04;14.30;;;6.65;;
30458;SDS011;74163;50.912;6.918;2023-12-20T02:55:36;15.20;;;7.63;;
30458;SDS011;74163;50.912;6.918;2023-12-20T02:56:08;13.93;;;6.70;;
30458;SDS011;74163;50.912;6.918;2023-12-20T02:56:40;12.93;;;6.20;;
30458;SDS011;74163;50.912;6.918;2023-12-20T02:57:11;14.60;;;7.07;;
30458;SDS011;74163;50.912;6.918;2023-12-20T02:57:43;14.80;;;7.10;;
30458;SDS011;74163;50.912;6.918;2023-12-20T02:58:16;14.30;;;7.00;;
30458;SDS011;74163;50.912;6.918;2023-12-20T02:58:48;15.07;;;7.10;;
30458;SDS011;74163;50.912;6.918;2023-12-20T02:59:19;14.80;;;7.07;;
30458;SDS011;74163;50.912;6.918;2023-12-20T02:59:51;12.23;;;6.38;;
30458;SDS011;74163;50.912;6.918;2023-12-20T03:00:23;11.63;;;6.57;;
30458;SDS011;74163;50.912;6.918;2023-12-20T03:00:55;13.00;;;6.28;;
30458;SDS011;74163;50.912;6.918;2023-12-20T03:01:27;13.02;;;6.53;;
30458;SDS011;74163;50.912;6.918;2023-12-20T03:02:01;13.85;;;7.13;;
30458;SDS011;74163;50.912;6.918;2023-12-20T03:02:33;12.88;;;6.55;;
30458;SDS011;74163;50.912;6.918;2023-12-20T03:03:05;13.90;;;5.82;;
30458;SDS011;74163;50.912;6.918;2023-12-20T03:03:37;14.68;;;6.20;;
30458;SDS011;74163;50.912;6.918;2023-12-20T03:04:09;12.45;;;6.28;;
30458;SDS011;74163;50.912;6.918;2023-12-20T03:04:41;12.35;;;5.72;;
30458;SDS011;74163;50.912;6.918;2023-12-20T03:05:13;13.70;;;5.88;;
30458;SDS011;74163;50.912;6.918;2023-12-20T03:05:45;15.02;;;5.90;;
30458;SDS011;74163;50.912;6.918;2023-12-20T03:06:17;14.07;;;6.18;;
30458;SDS011;74163;50.912;6.918;2023-12-20T03:06:50;14.30;;;5.78;;
30458;SDS011;74163;50.912;6.918;2023-12-20T03:07:22;13.07;;;6.05;;
30458;SDS011;74163;50.912;6.918;2023-12-20T03:07:55;12.63;;;5.90;;
30458;SDS011;74163;50.912;6.918;2023-12-20T03:08:27;15.23;;;6.22;;
30458;SDS011;74163;50.912;6.918;2023-12-20T03:09:02;12.77;;;6.00;;
30458;SDS011;74163;50.912;6.918;2023-12-20T03:09:34;15.52;;;6.40;;